createdAt,value
2022-08-12T00:00:12.907Z,15.90
2022-08-12T00:03:20.900Z,22.00
2022-08-12T00:06:10.226Z,19.10
2022-08-12T00:08:58.739Z,17.10
2022-08-12T00:11:46.779Z,19.50
2022-08-12T00:14:34.410Z,19.30
2022-08-12T00:17:23.431Z,17.50
2022-08-12T00:20:12.039Z,16.00
2022-08-12T00:23:00.283Z,17.30
2022-08-12T00:26:20.994Z,16.60
2022-08-12T00:29:13.532Z,17.60
2022-08-12T00:32:01.697Z,14.60
2022-08-12T00:34:51.774Z,14.50
2022-08-12T00:37:43.176Z,13.00
2022-08-12T00:40:32.981Z,15.30
2022-08-12T00:43:03.390Z,17.30
2022-08-12T00:45:52.554Z,15.40
2022-08-12T00:48:21.650Z,17.60
2022-08-12T00:50:54.739Z,16.10
2022-08-12T00:53:24.252Z,13.10
2022-08-12T00:55:57.919Z,15.00
2022-08-12T00:58:30.407Z,13.80
2022-08-12T01:01:06.963Z,10.30
2022-08-12T01:03:59.471Z,9.80
2022-08-12T01:06:50.941Z,13.50
2022-08-12T01:09:41.974Z,12.20
2022-08-12T01:12:12.504Z,11.40
2022-08-12T01:14:42.472Z,9.70
2022-08-12T01:17:11.618Z,11.40
2022-08-12T01:19:41.227Z,9.40
2022-08-12T01:22:25.944Z,13.50
2022-08-12T01:25:07.334Z,10.80
2022-08-12T01:27:40.340Z,12.10
2022-08-12T01:30:13.358Z,10.10
2022-08-12T01:32:43.128Z,10.80
2022-08-12T01:35:17.802Z,10.50
2022-08-12T01:37:57.535Z,10.70
2022-08-12T01:40:37.866Z,9.10
2022-08-12T01:43:13.959Z,9.90
2022-08-12T01:45:59.950Z,8.10
2022-08-12T01:49:03.963Z,9.40
2022-08-12T01:52:15.963Z,9.80
2022-08-12T01:54:43.568Z,7.60
2022-08-12T01:57:16.416Z,8.30
2022-08-12T02:00:12.653Z,8.60
2022-08-12T02:02:48.369Z,8.60
2022-08-12T02:06:22.113Z,9.40
2022-08-12T02:09:22.751Z,9.80
2022-08-12T02:12:10.541Z,9.30
2022-08-12T02:14:57.705Z,9.70
2022-08-12T02:17:55.929Z,7.10
2022-08-12T02:21:23.963Z,7.60
2022-08-12T02:23:54.082Z,7.00
2022-08-12T02:26:25.053Z,8.80
2022-08-12T02:28:54.116Z,10.40
2022-08-12T02:31:25.119Z,8.20
2022-08-12T02:33:54.925Z,6.80
2022-08-12T02:36:24.168Z,7.00
2022-08-12T02:38:55.651Z,7.50
2022-08-12T02:41:27.395Z,8.70
2022-08-12T02:44:05.079Z,6.60
2022-08-12T02:46:36.163Z,8.90
2022-08-12T02:49:11.802Z,7.90
2022-08-12T02:51:44.653Z,9.70
2022-08-12T02:54:13.956Z,6.70
2022-08-12T02:56:50.301Z,8.10
2022-08-12T02:59:24.699Z,6.80
2022-08-12T03:02:04.891Z,8.30
2022-08-12T03:04:44.064Z,6.50
2022-08-12T03:07:55.896Z,6.10
2022-08-12T03:10:36.650Z,6.30
2022-08-12T03:13:08.804Z,8.70
2022-08-12T03:15:38.068Z,6.90
2022-08-12T03:18:27.577Z,7.60
2022-08-12T03:21:02.475Z,7.40
2022-08-12T03:23:31.687Z,6.90
2022-08-12T03:26:03.508Z,8.90
2022-08-12T03:28:51.106Z,7.40
2022-08-12T03:31:34.053Z,9.00
2022-08-12T03:34:09.287Z,8.10
2022-08-12T03:36:42.421Z,6.80
2022-08-12T03:39:18.084Z,8.70
2022-08-12T03:41:53.206Z,8.10
2022-08-12T03:44:58.151Z,7.20
2022-08-12T03:48:38.624Z,8.30
2022-08-12T03:51:27.376Z,7.10
2022-08-12T03:54:16.333Z,6.90
2022-08-12T03:57:03.966Z,7.60
2022-08-12T03:59:51.495Z,5.80
2022-08-12T04:02:20.282Z,9.10
2022-08-12T04:04:49.631Z,9.70
2022-08-12T04:07:19.089Z,7.20
2022-08-12T04:09:48.700Z,11.00
2022-08-12T04:12:35.922Z,11.40
2022-08-12T04:15:06.025Z,8.10
2022-08-12T04:17:35.982Z,12.20
2022-08-12T04:20:05.951Z,7.30
2022-08-12T04:22:34.927Z,14.00
2022-08-12T04:25:04.087Z,9.40
2022-08-12T04:27:32.966Z,11.30
2022-08-12T04:30:17.010Z,10.40
2022-08-12T04:32:54.021Z,8.80
2022-08-12T04:35:22.977Z,10.60
2022-08-12T04:38:00.283Z,10.30
2022-08-12T04:40:36.675Z,8.40
2022-08-12T04:43:06.445Z,7.50
2022-08-12T04:45:55.921Z,8.20
2022-08-12T04:48:24.709Z,8.40
2022-08-12T04:50:53.703Z,9.20
2022-08-12T04:53:22.806Z,9.10
2022-08-12T04:55:52.612Z,9.30
2022-08-12T04:58:29.574Z,8.90
2022-08-12T05:00:59.201Z,11.70
2022-08-12T05:03:28.810Z,9.80
2022-08-12T05:06:17.024Z,10.20
2022-08-12T05:09:00.811Z,9.40
2022-08-12T05:11:29.789Z,8.00
2022-08-12T05:14:01.651Z,8.50
2022-08-12T05:16:34.250Z,7.30
2022-08-12T05:19:05.782Z,7.80
2022-08-12T05:21:41.991Z,9.00
2022-08-12T05:24:10.844Z,9.30
2022-08-12T05:26:41.469Z,7.80
2022-08-12T05:30:06.981Z,8.90
2022-08-12T05:32:02.498Z,7.20
2022-08-12T05:34:31.799Z,7.30
2022-08-12T05:37:04.183Z,7.20
2022-08-12T05:39:33.140Z,7.20
2022-08-12T05:42:02.062Z,6.80
2022-08-12T05:44:30.950Z,9.90
2022-08-12T05:46:59.739Z,11.60
2022-08-12T05:49:30.064Z,9.90
2022-08-12T05:51:58.955Z,8.00
2022-08-12T05:54:47.627Z,9.60
2022-08-12T05:57:17.015Z,6.20
2022-08-12T05:59:45.905Z,8.40
2022-08-12T06:02:14.694Z,11.20
2022-08-12T06:04:43.586Z,9.40
2022-08-12T06:08:00.504Z,7.10
2022-08-12T06:10:03.843Z,8.70
2022-08-12T06:12:32.585Z,7.40
2022-08-12T06:15:01.888Z,6.60
2022-08-12T06:17:31.494Z,8.00
2022-08-12T06:20:26.161Z,10.30
2022-08-12T06:22:49.348Z,7.10
2022-08-12T06:25:23.734Z,7.50
2022-08-12T06:28:07.624Z,8.70
2022-08-12T06:30:39.092Z,8.10
2022-08-12T06:33:22.202Z,7.50
2022-08-12T06:35:57.689Z,9.60
2022-08-12T06:38:30.871Z,7.50
2022-08-12T06:41:20.300Z,12.90
2022-08-12T06:44:05.557Z,8.60
2022-08-12T06:46:39.999Z,8.50
2022-08-12T06:49:12.781Z,7.40
2022-08-12T06:51:41.672Z,6.50
2022-08-12T06:54:30.859Z,7.50
2022-08-12T06:58:06.768Z,8.40
2022-08-12T06:59:51.377Z,9.50
2022-08-12T07:02:23.013Z,8.00
2022-08-12T07:04:53.091Z,7.00
2022-08-12T07:07:21.934Z,6.50
2022-08-12T07:10:05.153Z,6.10
2022-08-12T07:12:37.418Z,6.60
2022-08-12T07:15:07.377Z,6.80
2022-08-12T07:17:38.141Z,8.80
2022-08-12T07:20:29.825Z,6.60
2022-08-12T07:23:04.227Z,8.20
2022-08-12T07:25:37.194Z,6.80
2022-08-12T07:28:19.521Z,5.60
2022-08-12T07:30:49.580Z,6.90
2022-08-12T07:33:22.972Z,7.50
2022-08-12T07:35:54.327Z,7.60
2022-08-12T07:38:38.125Z,7.60
2022-08-12T07:41:15.739Z,5.40
2022-08-12T07:44:07.869Z,5.60
2022-08-12T07:46:43.509Z,5.70
2022-08-12T07:49:16.798Z,5.10
2022-08-12T07:51:45.898Z,7.50
2022-08-12T07:54:14.788Z,7.40
2022-08-12T07:56:43.779Z,8.00
2022-08-12T07:59:12.978Z,8.60
2022-08-12T08:01:43.466Z,5.40
2022-08-12T08:04:31.140Z,7.50
2022-08-12T08:07:00.953Z,6.30
2022-08-12T08:09:29.845Z,6.70
2022-08-12T08:12:19.437Z,8.40
2022-08-12T08:14:49.836Z,6.30
2022-08-12T08:17:19.457Z,6.00
2022-08-12T08:20:02.582Z,6.10
2022-08-12T08:22:41.849Z,4.50
2022-08-12T08:25:34.603Z,7.80
2022-08-12T08:28:06.574Z,6.50
2022-08-12T08:30:38.704Z,7.20
2022-08-12T08:33:22.622Z,4.50
2022-08-12T08:35:54.433Z,6.60
2022-08-12T08:38:33.370Z,5.30
2022-08-12T08:42:15.533Z,6.40
2022-08-12T08:44:12.484Z,4.60
2022-08-12T08:46:44.019Z,5.30
2022-08-12T08:49:13.762Z,6.30
2022-08-12T08:51:45.461Z,5.90
2022-08-12T08:54:14.604Z,4.90
2022-08-12T08:56:44.518Z,4.20
2022-08-12T08:59:14.229Z,4.80
2022-08-12T09:01:44.700Z,6.10
2022-08-12T09:05:09.662Z,5.00
2022-08-12T09:07:16.999Z,5.40
2022-08-12T09:12:55.415Z,6.70
2022-08-12T09:18:26.482Z,5.90
2022-08-12T09:21:02.120Z,5.90
2022-08-12T09:23:56.975Z,5.00
2022-08-12T09:29:14.450Z,6.10
2022-08-12T09:32:03.374Z,5.30
2022-08-12T09:34:37.643Z,5.00
2022-08-12T09:37:19.463Z,6.10
2022-08-12T09:40:05.162Z,6.50
2022-08-12T09:43:17.692Z,4.30
2022-08-12T09:46:11.963Z,6.10
2022-08-12T09:48:39.938Z,7.00
2022-08-12T09:51:16.965Z,5.30
2022-08-12T09:54:33.714Z,6.00
2022-08-12T09:57:00.568Z,5.50
2022-08-12T10:00:17.899Z,7.30
2022-08-12T10:02:48.587Z,4.90
2022-08-12T10:05:14.044Z,10.40
2022-08-12T10:07:46.777Z,6.20
2022-08-12T10:10:22.630Z,4.10
2022-08-12T10:13:37.151Z,4.00
2022-08-12T10:16:21.734Z,5.60
2022-08-12T10:18:57.334Z,5.60
2022-08-12T10:21:36.037Z,5.60
2022-08-12T10:24:12.389Z,6.40
2022-08-12T10:27:05.925Z,4.40
2022-08-12T10:30:40.711Z,5.00
2022-08-12T10:32:44.813Z,4.70
2022-08-12T10:35:16.874Z,5.90
2022-08-12T10:38:34.421Z,6.10
2022-08-12T10:40:56.161Z,5.90
2022-08-12T10:43:56.571Z,4.90
2022-08-12T10:46:30.402Z,5.70
2022-08-12T10:49:06.387Z,5.30
2022-08-12T10:52:04.368Z,4.60
2022-08-12T10:54:39.780Z,6.00
2022-08-12T10:57:18.144Z,3.80
2022-08-12T11:00:30.399Z,4.10
2022-08-12T11:04:24.244Z,4.90
2022-08-12T11:07:06.997Z,5.70
2022-08-12T11:08:43.246Z,4.50
2022-08-12T11:12:07.692Z,4.20
2022-08-12T11:14:48.372Z,4.70
2022-08-12T11:17:34.601Z,7.20
2022-08-12T11:19:47.187Z,6.20
2022-08-12T11:22:18.138Z,6.10
2022-08-12T11:24:51.114Z,5.30
2022-08-12T11:27:21.291Z,3.20
2022-08-12T11:30:06.566Z,5.60
2022-08-12T11:32:39.153Z,5.20
2022-08-12T11:35:11.721Z,6.40
2022-08-12T11:37:59.097Z,6.70
2022-08-12T11:40:29.885Z,4.80
2022-08-12T11:43:00.935Z,5.40
2022-08-12T11:45:53.281Z,5.30
2022-08-12T11:48:26.963Z,7.10
2022-08-12T11:50:56.500Z,6.30
2022-08-12T11:53:58.437Z,7.10
2022-08-12T11:56:14.149Z,5.80
2022-08-12T12:02:02.774Z,5.50
2022-08-12T12:04:28.880Z,5.90
2022-08-12T12:07:07.485Z,5.00
2022-08-12T12:09:52.954Z,6.70
2022-08-12T12:12:24.970Z,7.30
2022-08-12T12:14:55.847Z,4.80
2022-08-12T12:17:26.073Z,5.80
2022-08-12T12:19:55.286Z,7.30
2022-08-12T12:22:30.799Z,6.90
2022-08-12T12:25:13.152Z,6.30
2022-08-12T12:28:04.646Z,5.30
2022-08-12T12:30:37.341Z,5.90
2022-08-12T12:33:08.619Z,6.20
2022-08-12T12:36:18.631Z,6.20
2022-08-12T12:38:28.703Z,6.40
2022-08-12T12:40:57.595Z,8.00
2022-08-12T12:43:28.928Z,6.20
2022-08-12T12:46:11.871Z,4.50
2022-08-12T12:48:44.228Z,5.50
2022-08-12T12:51:48.827Z,6.60
2022-08-12T12:54:09.336Z,6.10
2022-08-12T12:56:42.818Z,6.70
2022-08-12T12:59:56.265Z,7.00
2022-08-12T13:02:08.226Z,5.00
2022-08-12T13:04:38.300Z,6.40
2022-08-12T13:07:07.106Z,8.30
2022-08-12T13:09:36.973Z,7.00
2022-08-12T13:12:10.520Z,6.20
2022-08-12T13:14:40.318Z,5.60
2022-08-12T13:17:16.732Z,6.10
2022-08-12T13:19:49.877Z,7.00
2022-08-12T13:22:19.623Z,8.90
2022-08-12T13:24:56.204Z,7.00
2022-08-12T13:27:35.516Z,5.70
2022-08-12T13:30:17.581Z,6.10
2022-08-12T13:32:58.389Z,6.10
2022-08-12T13:36:06.080Z,7.00
2022-08-12T13:38:35.576Z,4.80
2022-08-12T13:41:11.165Z,7.50
2022-08-12T13:43:41.908Z,9.20
2022-08-12T13:46:14.874Z,7.20
2022-08-12T13:48:44.957Z,6.20
2022-08-12T13:51:24.266Z,4.50
2022-08-12T13:53:58.826Z,6.00
2022-08-12T13:56:35.179Z,6.30
2022-08-12T13:59:08.785Z,5.40
2022-08-12T14:01:40.379Z,6.40
2022-08-12T14:04:11.932Z,8.20
2022-08-12T14:06:43.527Z,6.70
2022-08-12T14:09:17.830Z,6.00
2022-08-12T14:11:58.918Z,4.60
2022-08-12T14:14:31.161Z,7.20
2022-08-12T14:17:10.612Z,6.50
2022-08-12T14:20:00.984Z,8.60
2022-08-12T14:22:30.446Z,7.70
2022-08-12T14:25:01.738Z,8.80
2022-08-12T14:27:55.430Z,6.50
2022-08-12T14:30:29.426Z,7.90
2022-08-12T14:33:03.537Z,5.20
2022-08-12T14:35:44.641Z,5.50
2022-08-12T14:38:26.251Z,9.40
2022-08-12T14:41:03.219Z,7.00
2022-08-12T14:43:44.565Z,4.50
2022-08-12T14:46:27.878Z,6.70
2022-08-12T14:48:57.001Z,8.90
2022-08-12T14:52:42.684Z,7.60
2022-08-12T14:57:20.026Z,10.50
2022-08-12T15:00:18.990Z,6.30
2022-08-12T15:02:49.519Z,6.80
2022-08-12T15:06:05.889Z,7.70
2022-08-12T15:08:17.095Z,7.70
2022-08-12T15:10:53.904Z,6.60
2022-08-12T15:13:25.593Z,9.30
2022-08-12T15:15:55.552Z,7.60
2022-08-12T15:18:25.757Z,7.50
2022-08-12T15:21:04.352Z,7.80
2022-08-12T15:23:54.905Z,6.90
2022-08-12T15:26:27.443Z,6.60
2022-08-12T15:28:58.719Z,6.10
2022-08-12T15:31:35.642Z,7.00
2022-08-12T15:34:16.370Z,8.70
2022-08-12T15:36:54.837Z,8.60
2022-08-12T15:39:24.629Z,14.90
2022-08-12T15:41:56.966Z,7.70
2022-08-12T15:44:42.290Z,5.50
2022-08-12T15:47:12.064Z,5.60
2022-08-12T15:50:00.297Z,7.90
2022-08-12T15:52:30.707Z,7.40
2022-08-12T15:55:06.134Z,7.20
2022-08-12T15:57:53.254Z,5.10
2022-08-12T16:00:36.622Z,6.50
2022-08-12T16:03:14.352Z,5.30
2022-08-12T16:06:11.254Z,6.90
2022-08-12T16:08:39.896Z,7.60
2022-08-12T16:11:15.199Z,8.60
2022-08-12T16:13:45.113Z,8.30
2022-08-12T16:16:24.363Z,7.90
2022-08-12T16:19:01.901Z,5.60
2022-08-12T16:21:51.258Z,11.00
2022-08-12T16:24:21.980Z,7.90
2022-08-12T16:26:55.147Z,7.40
2022-08-12T16:29:52.675Z,8.60
2022-08-12T16:32:24.155Z,6.00
2022-08-12T16:34:56.534Z,6.50
2022-08-12T16:37:32.540Z,7.60
2022-08-12T16:40:06.367Z,8.00
2022-08-12T16:42:53.583Z,6.20
2022-08-12T16:46:08.054Z,5.50
2022-08-12T16:48:35.385Z,7.80
2022-08-12T16:51:12.944Z,8.50
2022-08-12T16:53:45.224Z,9.50
2022-08-12T16:56:17.050Z,7.10
2022-08-12T16:58:52.305Z,11.10
2022-08-12T17:01:21.436Z,8.10
2022-08-12T17:04:09.517Z,8.30
2022-08-12T17:06:48.376Z,7.00
2022-08-12T17:09:18.398Z,7.40
2022-08-12T17:11:49.115Z,9.30
2022-08-12T17:14:23.593Z,7.60
2022-08-12T17:16:55.901Z,7.90
2022-08-12T17:20:28.564Z,7.10
2022-08-12T17:22:21.742Z,40.80
2022-08-12T17:24:55.977Z,9.40
2022-08-12T17:27:30.981Z,7.40
2022-08-12T17:30:04.115Z,7.20
2022-08-12T17:32:37.212Z,9.20
2022-08-12T17:35:30.028Z,7.20
2022-08-12T17:38:11.620Z,8.20
2022-08-12T17:40:47.010Z,8.10
2022-08-12T17:43:55.860Z,7.70
2022-08-12T17:46:12.451Z,6.70
2022-08-12T17:48:55.857Z,8.80
2022-08-12T17:51:31.334Z,9.20
2022-08-12T17:54:10.543Z,9.70
2022-08-12T17:56:43.130Z,7.90
2022-08-12T17:59:13.822Z,9.90
2022-08-12T18:02:04.314Z,7.50
2022-08-12T18:04:35.884Z,8.90
2022-08-12T18:07:06.152Z,7.50
2022-08-12T18:09:38.631Z,6.30
2022-08-12T18:12:31.692Z,7.10
2022-08-12T18:15:10.830Z,6.60
2022-08-12T18:17:59.874Z,7.70
2022-08-12T18:20:35.220Z,6.70
2022-08-12T18:23:06.519Z,7.20
2022-08-12T18:26:14.312Z,8.90
2022-08-12T18:28:48.244Z,9.10
2022-08-12T18:31:44.253Z,9.60
2022-08-12T18:34:17.350Z,8.70
2022-08-12T18:36:50.285Z,13.40
2022-08-12T18:39:21.150Z,11.10
2022-08-12T18:41:51.856Z,11.20
2022-08-12T18:44:28.481Z,10.40
2022-08-12T18:47:02.385Z,10.00
2022-08-12T18:49:38.585Z,8.90
2022-08-12T18:52:11.583Z,9.70
2022-08-12T18:54:54.089Z,10.00
2022-08-12T18:57:45.796Z,9.30
2022-08-12T19:00:21.932Z,8.50
2022-08-12T19:02:56.368Z,11.70
2022-08-12T19:05:52.876Z,11.70
2022-08-12T19:08:16.877Z,11.40
2022-08-12T19:10:50.541Z,9.10
2022-08-12T19:13:42.850Z,10.50
2022-08-12T19:16:13.069Z,9.20
2022-08-12T19:18:44.756Z,10.50
2022-08-12T19:21:16.682Z,8.50
2022-08-12T19:24:06.342Z,28.20
2022-08-12T19:26:36.938Z,10.70
2022-08-12T19:29:08.249Z,9.20
2022-08-12T19:31:56.414Z,11.40
2022-08-12T19:37:38.579Z,14.30
2022-08-12T19:40:32.602Z,13.50
2022-08-12T19:43:19.811Z,11.50
2022-08-12T19:45:56.707Z,12.90
2022-08-12T19:48:32.710Z,11.60
2022-08-12T19:51:22.715Z,10.40
2022-08-12T19:53:58.061Z,9.80
2022-08-12T19:56:29.457Z,10.00
2022-08-12T19:59:20.931Z,9.00
2022-08-12T20:02:02.816Z,13.80
2022-08-12T20:04:38.062Z,11.60
2022-08-12T20:07:23.449Z,9.90
2022-08-12T20:09:54.318Z,10.90
2022-08-12T20:12:32.463Z,11.70
2022-08-12T20:15:11.010Z,13.00
2022-08-12T20:17:50.800Z,12.30
2022-08-12T20:20:28.280Z,15.40
2022-08-12T20:22:58.128Z,12.20
2022-08-12T20:25:28.020Z,12.30
2022-08-12T20:28:05.585Z,11.20
2022-08-12T20:30:52.434Z,10.90
2022-08-12T20:33:32.768Z,12.30
2022-08-12T20:36:42.428Z,11.60
2022-08-12T20:39:37.394Z,11.80
2022-08-12T20:42:02.466Z,13.30
2022-08-12T20:44:34.612Z,18.50
2022-08-12T20:47:18.274Z,15.50
2022-08-12T20:49:54.953Z,14.40
2022-08-12T20:52:35.202Z,16.10
2022-08-12T20:55:15.665Z,17.80
2022-08-12T20:58:03.051Z,16.20
2022-08-12T21:00:33.969Z,17.30
2022-08-12T21:03:23.291Z,14.90
2022-08-12T21:06:14.121Z,13.30
2022-08-12T21:08:44.097Z,17.40
2022-08-12T21:11:13.958Z,21.70
2022-08-12T21:13:42.969Z,19.10
2022-08-12T21:16:12.579Z,15.00
2022-08-12T21:18:42.594Z,15.50
2022-08-12T21:21:23.691Z,17.10
2022-08-12T21:23:56.447Z,17.70
2022-08-12T21:26:28.972Z,19.30
2022-08-12T21:29:01.966Z,16.30
2022-08-12T21:32:39.536Z,15.50
2022-08-12T21:34:26.048Z,15.20
2022-08-12T21:36:55.216Z,14.90
2022-08-12T21:39:35.667Z,15.60
2022-08-12T21:42:07.926Z,12.10
2022-08-12T21:45:48.129Z,12.60
2022-08-12T21:47:28.650Z,14.10
2022-08-12T21:50:02.841Z,13.20
2022-08-12T21:52:41.164Z,10.50
2022-08-12T21:55:19.968Z,14.40
2022-08-12T21:57:54.469Z,10.20
2022-08-12T22:00:36.881Z,9.70
2022-08-12T22:04:03.193Z,13.70
2022-08-12T22:06:31.233Z,15.60
2022-08-12T22:09:16.143Z,11.10
2022-08-12T22:11:49.329Z,13.80
2022-08-12T22:14:30.010Z,27.60
2022-08-12T22:17:05.104Z,16.30
2022-08-12T22:19:35.500Z,12.10
2022-08-12T22:22:05.739Z,14.10
2022-08-12T22:24:35.907Z,14.60
2022-08-12T22:27:31.899Z,11.40
2022-08-12T22:30:21.100Z,10.10
2022-08-12T22:32:54.847Z,10.60
2022-08-12T22:35:55.699Z,11.80
2022-08-12T22:38:29.192Z,11.40
2022-08-12T22:41:30.396Z,12.20
2022-08-12T22:44:19.578Z,14.70
2022-08-12T22:46:54.094Z,11.50
2022-08-12T22:49:36.743Z,13.80
2022-08-12T22:52:22.708Z,13.20
2022-08-12T22:55:04.147Z,13.00
2022-08-12T22:57:53.496Z,10.80
2022-08-12T23:00:27.208Z,11.60
2022-08-12T23:03:02.678Z,10.30
2022-08-12T23:05:56.790Z,10.70
2022-08-12T23:08:29.968Z,12.90
2022-08-12T23:11:06.289Z,9.50
2022-08-12T23:13:46.190Z,10.90
2022-08-12T23:16:28.309Z,12.00
2022-08-12T23:19:10.656Z,9.80
2022-08-12T23:22:04.064Z,11.20
2022-08-12T23:24:56.039Z,10.90
2022-08-12T23:27:52.025Z,9.50
2022-08-12T23:30:32.408Z,11.10
2022-08-12T23:33:13.612Z,11.40
2022-08-12T23:36:02.659Z,9.80
2022-08-12T23:38:34.866Z,10.90
2022-08-12T23:41:06.232Z,9.70
2022-08-12T23:43:42.786Z,10.50
2022-08-12T23:46:25.848Z,14.00
2022-08-12T23:48:58.830Z,9.90
2022-08-12T23:51:32.071Z,14.50
2022-08-12T23:54:08.494Z,9.00
2022-08-12T23:56:40.078Z,12.00
2022-08-12T23:59:14.020Z,10.10
